メインページ
METAR-TAF:

METAR-TAF

空港 :

カルガリー国際空港

カルガリー, アルバータ州, カナダ

緯度: 51-07N, 経度: 114-01W, 海抜: 1077m

現時点の気象観測

当レポートは16分前の07:00(UTC)に作成
の風 2kt
気温 20°C
湿度 46%
気圧 1017 hPa
視程: 24.1km
晴天

METAR: CYYC 170700Z 18002KT 15SM SKC 20/08 A3002 RMK AURBO SLP148 DENSITY ALT 5000FT

時間: 01:16 (07:16 UTC)

予報

当レポートは1時間38分前の05:38(UTC)に作成
予報は17日の 06時(UTC)から 18日の 06時(UTC)まで有効
の風 6kt
視程: 10km
晴天
17日の 11時(UTC)から 17日の 13時(UTC)まで徐々に
北西の風 8kt
17日の 1400時(UTC)から
北/北西の風 10kt
視程: 10km
晴天
17日の 2100時(UTC)から
東/北東の風 10kt
視程: 10km
高度9000ftの雲はほとんどない
高度14000ftの雲は散在している
18日の 04時(UTC)から 18日の 06時(UTC)まで徐々に
西/北西の風 10kt

TAF: CYYC 170538Z 1706/1806 18006KT P6SM SKC BECMG 1711/1713 32008KT FM171400 34010KT P6SM SKC FM172100 06010KT P6SM FEW090 SCT140 BECMG 1804/1806 30010KT RMK NXT FCST BY 170900Z

4,000以上の空港の気象観測と天気予報(METAR報とTAF報)

利用可能な観測所は地図上に黄色い丸と赤い丸で示す。

丸の上にカーソルを重ねると観測所名を参照できる。

次にクリックすると気象観測と天気予報を参照できる。

マップの切り替え:黒色「×」印の緑ボタンをクリックして拡大、「-」印の緑ボタンをクリックして縮小、緑色の三角印をクリックして隣りの地図に切り替え


METAR-TAF: